createdAt,value
2023-04-30T00:01:05.803Z,9.15
2023-04-30T00:03:48.974Z,9.14
2023-04-30T00:06:32.459Z,9.02
2023-04-30T00:09:15.968Z,9.00
2023-04-30T00:12:00.557Z,8.94
2023-04-30T00:14:43.719Z,8.94
2023-04-30T00:17:27.523Z,8.84
2023-04-30T00:20:14.544Z,8.80
2023-04-30T00:22:58.045Z,8.76
2023-04-30T00:25:41.159Z,8.66
2023-04-30T00:28:25.632Z,8.63
2023-04-30T00:31:09.490Z,8.53
2023-04-30T00:33:52.845Z,8.52
2023-04-30T00:36:36.319Z,8.45
2023-04-30T00:39:19.646Z,8.38
2023-04-30T00:42:02.883Z,8.40
2023-04-30T00:44:47.387Z,8.38
2023-04-30T00:47:32.360Z,8.28
2023-04-30T00:50:17.018Z,8.30
2023-04-30T00:53:01.526Z,8.28
2023-04-30T00:55:45.668Z,8.31
2023-04-30T00:58:29.288Z,8.25
2023-04-30T01:01:14.252Z,8.17
2023-04-30T01:03:59.857Z,8.18
2023-04-30T01:06:43.487Z,8.22
2023-04-30T01:09:27.491Z,8.16
2023-04-30T01:12:15.264Z,8.14
2023-04-30T01:15:06.104Z,8.02
2023-04-30T01:17:57.403Z,8.05
2023-04-30T01:20:47.151Z,8.00
2023-04-30T01:23:48.312Z,7.91
2023-04-30T01:26:46.828Z,7.87
2023-04-30T01:29:33.970Z,7.83
2023-04-30T01:32:17.439Z,7.80
2023-04-30T01:35:02.971Z,7.75
2023-04-30T01:38:00.244Z,7.65
2023-04-30T01:40:49.405Z,7.63
2023-04-30T01:43:41.138Z,7.64
2023-04-30T01:46:28.456Z,7.64
2023-04-30T01:49:26.115Z,7.67
2023-04-30T01:52:19.409Z,7.58
2023-04-30T01:55:08.904Z,7.56
2023-04-30T01:57:58.787Z,7.53
2023-04-30T02:00:42.262Z,7.48
2023-04-30T02:03:27.156Z,7.46
2023-04-30T02:06:10.933Z,7.47
2023-04-30T02:08:54.438Z,7.51
2023-04-30T02:11:37.709Z,7.51
2023-04-30T02:14:20.994Z,7.51
2023-04-30T02:17:05.214Z,7.53
2023-04-30T02:19:49.801Z,7.52
2023-04-30T02:22:32.883Z,7.45
2023-04-30T02:25:16.011Z,7.49
2023-04-30T02:27:59.092Z,7.46
2023-04-30T02:30:42.181Z,7.39
2023-04-30T02:33:25.377Z,7.41
2023-04-30T02:36:10.011Z,7.39
2023-04-30T02:38:53.310Z,7.32
2023-04-30T02:41:36.646Z,7.29
2023-04-30T02:44:19.823Z,7.29
2023-04-30T02:47:03.704Z,7.29
2023-04-30T02:49:47.038Z,7.38
2023-04-30T02:52:31.646Z,7.42
2023-04-30T02:55:15.060Z,7.51
2023-04-30T02:57:58.256Z,7.57
2023-04-30T03:00:41.520Z,7.64
2023-04-30T03:03:24.742Z,7.78
2023-04-30T03:06:07.896Z,7.84
2023-04-30T03:08:52.409Z,7.90
2023-04-30T03:11:37.725Z,7.93
2023-04-30T03:14:20.889Z,7.98
2023-04-30T03:17:03.942Z,8.12
2023-04-30T03:19:47.129Z,8.17
2023-04-30T03:22:30.479Z,8.24
2023-04-30T03:25:15.278Z,8.35
2023-04-30T03:27:58.861Z,8.46
2023-04-30T03:30:42.024Z,8.46
2023-04-30T03:33:26.374Z,8.61
2023-04-30T03:36:09.605Z,8.69
2023-04-30T03:38:52.921Z,8.79
2023-04-30T03:41:37.536Z,8.83
2023-04-30T03:44:20.886Z,8.85
2023-04-30T03:47:04.088Z,8.95
2023-04-30T03:49:49.165Z,9.05
2023-04-30T03:52:33.938Z,9.00
2023-04-30T03:55:17.229Z,8.96
2023-04-30T03:58:03.240Z,9.11
2023-04-30T04:00:48.162Z,9.23
2023-04-30T04:03:31.488Z,9.30
2023-04-30T04:06:14.635Z,9.33
2023-04-30T04:08:59.872Z,9.38
2023-04-30T04:11:43.214Z,9.41
2023-04-30T04:14:28.163Z,9.30
2023-04-30T04:17:11.474Z,9.47
2023-04-30T04:19:54.981Z,9.68
2023-04-30T04:22:38.389Z,9.55
2023-04-30T04:25:25.018Z,9.76
2023-04-30T04:28:08.109Z,9.85
2023-04-30T04:30:53.059Z,9.89
2023-04-30T04:33:37.495Z,9.88
2023-04-30T04:36:20.945Z,9.87
2023-04-30T04:39:04.870Z,9.83
2023-04-30T04:41:47.920Z,9.89
2023-04-30T04:44:31.047Z,10.07
2023-04-30T04:47:16.996Z,10.17
2023-04-30T04:50:00.863Z,10.34
2023-04-30T04:52:43.949Z,10.58
2023-04-30T04:55:27.486Z,10.75
2023-04-30T04:58:10.765Z,10.70
2023-04-30T05:00:54.449Z,10.66
2023-04-30T05:03:39.469Z,10.90
2023-04-30T05:06:22.928Z,10.48
2023-04-30T05:09:09.536Z,10.44
2023-04-30T05:11:52.803Z,10.39
2023-04-30T05:14:37.353Z,10.64
2023-04-30T05:17:23.130Z,10.46
2023-04-30T05:20:09.485Z,10.20
2023-04-30T05:22:52.697Z,9.90
2023-04-30T05:25:37.200Z,9.90
2023-04-30T05:28:21.088Z,10.35
2023-04-30T05:31:04.294Z,10.67
2023-04-30T05:33:47.482Z,10.86
2023-04-30T05:36:32.235Z,11.13
2023-04-30T05:39:15.700Z,11.25
2023-04-30T05:42:02.269Z,11.01
2023-04-30T05:44:45.859Z,11.36
2023-04-30T05:47:28.926Z,11.50
2023-04-30T05:50:12.357Z,11.60
2023-04-30T05:52:57.100Z,11.69
2023-04-30T05:55:40.516Z,11.77
2023-04-30T05:58:23.725Z,11.90
2023-04-30T06:01:06.854Z,11.86
2023-04-30T06:03:50.650Z,11.99
2023-04-30T06:06:34.129Z,12.36
2023-04-30T06:09:18.952Z,12.49
2023-04-30T06:12:02.623Z,12.51
2023-04-30T06:14:46.189Z,12.57
2023-04-30T06:17:29.667Z,12.36
2023-04-30T06:20:14.837Z,12.35
2023-04-30T06:22:57.919Z,12.50
2023-04-30T06:25:42.759Z,12.27
2023-04-30T06:28:25.840Z,12.36
2023-04-30T06:31:09.209Z,12.62
2023-04-30T06:33:52.611Z,12.78
2023-04-30T06:36:35.762Z,12.95
2023-04-30T06:39:18.934Z,12.68
2023-04-30T06:42:04.084Z,12.97
2023-04-30T06:44:47.432Z,13.60
2023-04-30T06:47:34.594Z,13.11
2023-04-30T06:50:17.893Z,13.92
2023-04-30T06:53:01.384Z,14.60
2023-04-30T06:55:46.112Z,14.62
2023-04-30T06:58:30.840Z,15.63
2023-04-30T07:01:14.005Z,16.64
2023-04-30T07:03:57.843Z,16.16
2023-04-30T07:06:41.207Z,16.22
2023-04-30T07:09:24.786Z,16.61
2023-04-30T07:12:07.965Z,17.18
2023-04-30T07:14:53.011Z,16.71
2023-04-30T07:17:36.293Z,16.26
2023-04-30T07:20:19.935Z,15.64
2023-04-30T07:23:03.630Z,15.13
2023-04-30T07:25:46.860Z,14.93
2023-04-30T07:28:30.060Z,15.27
2023-04-30T07:31:14.921Z,15.07
2023-04-30T07:33:58.964Z,15.15
2023-04-30T07:36:45.631Z,15.95
2023-04-30T07:39:29.016Z,15.74
2023-04-30T07:42:12.423Z,16.05
2023-04-30T07:44:56.599Z,15.10
2023-04-30T07:47:41.794Z,14.83
2023-04-30T07:50:25.067Z,14.64
2023-04-30T07:53:09.600Z,14.23
2023-04-30T07:55:52.878Z,14.39
2023-04-30T07:58:36.084Z,15.07
2023-04-30T08:01:22.477Z,15.17
2023-04-30T08:04:07.667Z,15.44
2023-04-30T08:06:50.976Z,15.55
2023-04-30T08:09:34.300Z,16.06
2023-04-30T08:12:18.597Z,17.06
2023-04-30T08:15:05.139Z,20.75
2023-04-30T08:17:48.569Z,22.17
2023-04-30T08:20:36.561Z,21.13
2023-04-30T08:23:21.401Z,21.32
2023-04-30T08:26:06.962Z,20.77
2023-04-30T08:28:50.306Z,22.29
2023-04-30T08:31:34.136Z,24.11
2023-04-30T08:34:17.476Z,23.50
2023-04-30T08:37:03.177Z,22.54
2023-04-30T08:39:46.300Z,21.82
2023-04-30T08:42:33.238Z,20.87
2023-04-30T08:45:18.764Z,20.33
2023-04-30T08:48:03.158Z,19.32
2023-04-30T08:50:46.967Z,18.67
2023-04-30T08:53:33.368Z,18.23
2023-04-30T08:56:16.473Z,18.18
2023-04-30T08:59:00.588Z,18.35
2023-04-30T09:01:44.892Z,18.67
2023-04-30T09:04:28.320Z,19.39
2023-04-30T09:07:14.659Z,20.07
2023-04-30T09:10:00.875Z,21.01
2023-04-30T09:12:45.795Z,23.22
2023-04-30T09:15:29.364Z,30.48
2023-04-30T09:18:15.627Z,35.16
2023-04-30T09:21:01.305Z,41.01
2023-04-30T09:23:58.503Z,40.25
2023-04-30T09:26:47.012Z,42.03
2023-04-30T09:29:39.023Z,41.33
2023-04-30T09:32:23.231Z,41.48
2023-04-30T09:35:07.821Z,40.04
2023-04-30T09:37:51.094Z,40.34
2023-04-30T09:40:40.375Z,41.05
2023-04-30T09:43:25.225Z,43.66
2023-04-30T09:46:08.400Z,44.95
2023-04-30T09:48:59.500Z,41.70
2023-04-30T09:51:56.082Z,43.37
2023-04-30T09:54:40.204Z,43.70
2023-04-30T09:57:25.819Z,42.83
2023-04-30T10:00:12.261Z,38.06
2023-04-30T10:02:57.317Z,33.20
2023-04-30T10:05:43.228Z,31.47
2023-04-30T10:08:31.004Z,29.76
2023-04-30T10:11:19.913Z,29.11
2023-04-30T10:14:05.437Z,30.01
2023-04-30T10:16:55.176Z,30.11
2023-04-30T10:19:42.794Z,28.66
2023-04-30T10:22:26.572Z,34.41
2023-04-30T10:25:11.534Z,39.89
2023-04-30T10:27:55.230Z,41.92
2023-04-30T10:30:39.274Z,37.56
2023-04-30T10:33:33.891Z,32.05
2023-04-30T10:36:28.353Z,27.29
2023-04-30T10:39:12.865Z,24.77
2023-04-30T10:42:03.694Z,23.46
2023-04-30T10:44:47.140Z,21.63
2023-04-30T10:47:32.318Z,20.49
2023-04-30T10:50:17.594Z,19.93
2023-04-30T10:53:05.099Z,18.56
2023-04-30T10:55:50.731Z,18.47
2023-04-30T10:58:35.396Z,17.92
2023-04-30T11:01:18.996Z,19.70
2023-04-30T11:04:09.504Z,22.70
2023-04-30T11:07:12.387Z,24.08
2023-04-30T11:10:01.781Z,23.49
2023-04-30T11:12:49.981Z,23.94
2023-04-30T11:15:37.448Z,25.19
2023-04-30T11:18:20.962Z,24.24
2023-04-30T11:21:05.402Z,24.45
2023-04-30T11:23:55.314Z,24.17
2023-04-30T11:27:07.120Z,23.10
2023-04-30T11:29:51.712Z,21.83
2023-04-30T11:32:37.251Z,22.57
2023-04-30T11:35:21.065Z,22.13
2023-04-30T11:38:07.210Z,22.04
2023-04-30T11:40:53.035Z,22.58
2023-04-30T11:43:37.522Z,22.80
2023-04-30T11:46:20.797Z,22.73
2023-04-30T11:49:04.148Z,22.70
2023-04-30T11:51:50.867Z,22.78
2023-04-30T11:54:35.410Z,22.74
2023-04-30T11:57:20.160Z,22.79
2023-04-30T12:00:11.468Z,22.77
2023-04-30T12:02:56.982Z,22.05
2023-04-30T12:05:42.711Z,21.57
2023-04-30T12:08:26.831Z,21.69
2023-04-30T12:11:21.790Z,21.33
2023-04-30T12:14:10.763Z,20.64
2023-04-30T12:16:57.170Z,19.92
2023-04-30T12:19:40.881Z,19.56
2023-04-30T12:22:24.338Z,19.39
2023-04-30T12:25:10.440Z,18.96
2023-04-30T12:27:55.807Z,18.68
2023-04-30T12:30:40.629Z,18.23
2023-04-30T12:33:23.952Z,17.82
2023-04-30T12:36:12.138Z,17.62
2023-04-30T12:39:04.298Z,17.14
2023-04-30T12:41:49.509Z,16.13
2023-04-30T12:44:32.610Z,15.74
2023-04-30T12:47:17.546Z,15.76
2023-04-30T12:50:00.880Z,15.75
2023-04-30T12:52:46.399Z,15.55
2023-04-30T12:55:33.561Z,15.39
2023-04-30T12:58:16.986Z,15.46
2023-04-30T13:01:00.237Z,15.88
2023-04-30T13:03:44.945Z,16.62
2023-04-30T13:06:31.554Z,16.93
2023-04-30T13:09:14.739Z,17.30
2023-04-30T13:11:57.976Z,17.26
2023-04-30T13:14:41.015Z,17.36
2023-04-30T13:17:24.631Z,17.35
2023-04-30T13:20:11.206Z,17.41
2023-04-30T13:22:54.532Z,17.53
2023-04-30T13:25:37.745Z,17.60
2023-04-30T13:28:24.031Z,17.58
2023-04-30T13:31:07.286Z,17.55
2023-04-30T13:33:50.927Z,17.37
2023-04-30T13:36:38.546Z,17.69
2023-04-30T13:39:22.090Z,17.86
2023-04-30T13:42:05.475Z,18.05
2023-04-30T13:44:50.093Z,18.02
2023-04-30T13:47:33.313Z,18.37
2023-04-30T13:50:16.506Z,18.72
2023-04-30T13:53:01.115Z,19.04
2023-04-30T13:55:44.523Z,18.94
2023-04-30T13:58:28.862Z,19.17
2023-04-30T14:01:12.194Z,19.16
2023-04-30T14:03:55.790Z,18.98
2023-04-30T14:06:44.092Z,19.21
2023-04-30T14:09:29.295Z,19.36
2023-04-30T14:12:12.529Z,19.52
2023-04-30T14:14:56.776Z,19.75
2023-04-30T14:17:40.095Z,19.44
2023-04-30T14:20:23.560Z,19.21
2023-04-30T14:23:06.777Z,19.13
2023-04-30T14:25:51.354Z,18.74
2023-04-30T14:28:34.959Z,18.64
2023-04-30T14:31:18.707Z,18.55
2023-04-30T14:34:02.061Z,17.95
2023-04-30T14:36:45.592Z,17.66
2023-04-30T14:39:30.129Z,17.60
2023-04-30T14:42:15.483Z,17.41
2023-04-30T14:44:58.869Z,16.83
2023-04-30T14:47:42.336Z,16.45
2023-04-30T14:50:26.047Z,16.26
2023-04-30T14:53:09.648Z,16.43
2023-04-30T14:55:52.918Z,16.62
2023-04-30T14:58:37.618Z,16.69
2023-04-30T15:01:21.339Z,16.70
2023-04-30T15:04:05.665Z,16.73
2023-04-30T15:06:49.301Z,16.58
2023-04-30T15:09:32.532Z,16.34
2023-04-30T15:12:16.215Z,16.40
2023-04-30T15:15:01.521Z,16.29
2023-04-30T15:17:44.992Z,16.22
2023-04-30T15:20:28.653Z,16.01
2023-04-30T15:23:12.829Z,15.91
2023-04-30T15:25:57.048Z,15.92
2023-04-30T15:28:40.730Z,15.81
2023-04-30T15:31:25.522Z,15.82
2023-04-30T15:34:08.850Z,15.83
2023-04-30T15:36:54.756Z,15.87
2023-04-30T15:39:40.480Z,15.92
2023-04-30T15:42:26.687Z,16.00
2023-04-30T15:45:11.622Z,16.14
2023-04-30T15:47:56.320Z,16.33
2023-04-30T15:50:39.827Z,16.43
2023-04-30T15:53:23.059Z,16.62
2023-04-30T15:56:06.722Z,16.67
2023-04-30T15:58:50.868Z,16.82
2023-04-30T16:01:34.658Z,16.93
2023-04-30T16:04:19.641Z,16.84
2023-04-30T16:07:06.428Z,16.80
2023-04-30T16:09:49.903Z,16.81
2023-04-30T16:12:34.394Z,16.97
2023-04-30T16:15:17.833Z,17.27
2023-04-30T16:18:02.162Z,17.22
2023-04-30T16:20:50.283Z,17.21
2023-04-30T16:23:33.409Z,17.03
2023-04-30T16:26:17.337Z,16.78
2023-04-30T16:29:01.076Z,16.68
2023-04-30T16:31:44.849Z,16.59
2023-04-30T16:34:28.339Z,16.38
2023-04-30T16:37:13.789Z,16.20
2023-04-30T16:39:57.854Z,16.13
2023-04-30T16:42:41.304Z,15.97
2023-04-30T16:45:24.689Z,15.86
2023-04-30T16:48:08.096Z,15.63
2023-04-30T16:50:51.621Z,15.54
2023-04-30T16:53:36.265Z,15.37
2023-04-30T16:56:20.318Z,15.25
2023-04-30T16:59:03.776Z,15.02
2023-04-30T17:01:47.218Z,15.05
2023-04-30T17:04:31.222Z,15.00
2023-04-30T17:07:14.584Z,14.86
2023-04-30T17:10:01.968Z,14.66
2023-04-30T17:12:45.493Z,14.58
2023-04-30T17:15:28.840Z,14.44
2023-04-30T17:18:15.224Z,14.36
2023-04-30T17:20:59.324Z,14.28
2023-04-30T17:23:42.564Z,14.13
2023-04-30T17:26:27.290Z,13.99
2023-04-30T17:29:11.012Z,13.92
2023-04-30T17:31:54.593Z,13.84
2023-04-30T17:34:37.876Z,13.77
2023-04-30T17:37:21.029Z,13.68
2023-04-30T17:40:05.564Z,13.67
2023-04-30T17:42:52.906Z,13.63
2023-04-30T17:45:46.097Z,13.47
2023-04-30T17:48:31.002Z,13.47
2023-04-30T17:51:14.305Z,13.37
2023-04-30T17:53:57.696Z,13.32
2023-04-30T17:56:40.878Z,13.33
2023-04-30T17:59:26.421Z,13.31
2023-04-30T18:02:11.779Z,13.17
2023-04-30T18:04:55.002Z,13.12
2023-04-30T18:07:38.491Z,13.05
2023-04-30T18:10:22.120Z,12.99
2023-04-30T18:13:08.294Z,13.01
2023-04-30T18:15:53.176Z,12.96
2023-04-30T18:18:37.720Z,12.86
2023-04-30T18:21:21.543Z,12.75
2023-04-30T18:24:05.228Z,12.59
2023-04-30T18:26:48.733Z,12.62
2023-04-30T18:29:31.978Z,12.55
2023-04-30T18:32:17.613Z,12.49
2023-04-30T18:35:02.664Z,12.43
2023-04-30T18:37:46.239Z,12.28
2023-04-30T18:40:31.421Z,12.23
2023-04-30T18:43:17.124Z,12.23
2023-04-30T18:46:00.981Z,12.17
2023-04-30T18:48:45.614Z,12.21
2023-04-30T18:51:29.148Z,12.23
2023-04-30T18:54:12.697Z,12.21
2023-04-30T18:56:56.184Z,12.18
2023-04-30T18:59:40.489Z,12.18
2023-04-30T19:02:24.230Z,12.11
2023-04-30T19:05:09.665Z,12.19
2023-04-30T19:07:53.018Z,12.23
2023-04-30T19:10:37.632Z,12.19
2023-04-30T19:13:20.821Z,12.13
2023-04-30T19:16:04.985Z,12.10
2023-04-30T19:18:49.795Z,12.05
2023-04-30T19:21:36.416Z,12.13
2023-04-30T19:24:19.894Z,12.19
2023-04-30T19:27:04.368Z,12.20
2023-04-30T19:29:47.893Z,12.13
2023-04-30T19:32:31.851Z,12.09
2023-04-30T19:35:16.377Z,12.03
2023-04-30T19:38:01.311Z,12.00
2023-04-30T19:40:49.227Z,12.01
2023-04-30T19:43:32.661Z,11.98
2023-04-30T19:46:17.352Z,11.95
2023-04-30T19:49:00.696Z,11.97
2023-04-30T19:51:44.072Z,11.98
2023-04-30T19:54:29.074Z,12.09
2023-04-30T19:57:12.299Z,12.12
2023-04-30T19:59:57.480Z,12.11
2023-04-30T20:02:41.206Z,12.21
2023-04-30T20:05:24.451Z,12.31
2023-04-30T20:08:09.476Z,12.28
2023-04-30T20:10:54.149Z,12.37
2023-04-30T20:13:37.244Z,12.48
2023-04-30T20:16:20.599Z,12.54
2023-04-30T20:19:04.339Z,12.58
2023-04-30T20:21:49.353Z,12.55
2023-04-30T20:24:33.557Z,12.65
2023-04-30T20:27:18.519Z,12.67
2023-04-30T20:30:04.472Z,12.59
2023-04-30T20:32:48.717Z,12.45
2023-04-30T20:35:32.646Z,12.39
2023-04-30T20:38:19.604Z,12.31
2023-04-30T20:41:03.388Z,12.30
2023-04-30T20:43:48.205Z,12.20
2023-04-30T20:46:32.396Z,12.09
2023-04-30T20:49:15.701Z,12.05
2023-04-30T20:52:01.554Z,12.02
2023-04-30T20:54:45.121Z,12.04
2023-04-30T20:57:28.263Z,12.09
2023-04-30T21:00:14.288Z,12.12
2023-04-30T21:02:57.476Z,12.04
2023-04-30T21:05:40.940Z,11.91
2023-04-30T21:08:24.204Z,11.87
2023-04-30T21:11:07.478Z,11.91
2023-04-30T21:13:51.439Z,11.90
2023-04-30T21:16:36.332Z,11.95
2023-04-30T21:19:19.528Z,11.87
2023-04-30T21:22:02.686Z,11.79
2023-04-30T21:24:46.047Z,11.91
2023-04-30T21:27:29.302Z,12.04
2023-04-30T21:30:15.396Z,12.05
2023-04-30T21:33:00.373Z,11.97
2023-04-30T21:35:43.921Z,12.01
2023-04-30T21:38:28.978Z,12.08
2023-04-30T21:41:15.626Z,12.10
2023-04-30T21:43:59.164Z,12.02
2023-04-30T21:46:42.355Z,12.04
2023-04-30T21:49:27.709Z,12.04
2023-04-30T21:52:11.677Z,12.12
2023-04-30T21:54:54.863Z,12.16
2023-04-30T21:57:40.144Z,12.12
2023-04-30T22:00:23.338Z,12.12
2023-04-30T22:03:07.006Z,12.19
2023-04-30T22:05:51.774Z,12.03
2023-04-30T22:08:35.192Z,12.01
2023-04-30T22:11:18.737Z,11.93
2023-04-30T22:14:02.113Z,11.84
2023-04-30T22:16:47.250Z,11.83
2023-04-30T22:19:30.594Z,11.86
2023-04-30T22:22:15.209Z,11.78
2023-04-30T22:24:58.575Z,11.74
2023-04-30T22:27:42.137Z,11.68
2023-04-30T22:30:25.720Z,11.64
2023-04-30T22:33:09.030Z,11.52
2023-04-30T22:35:55.800Z,11.48
2023-04-30T22:38:40.393Z,11.47
2023-04-30T22:41:24.639Z,11.41
2023-04-30T22:44:07.999Z,11.35
2023-04-30T22:46:51.419Z,11.34
2023-04-30T22:49:37.153Z,11.26
2023-04-30T22:52:20.776Z,11.17
2023-04-30T22:55:07.221Z,11.06
2023-04-30T22:57:50.707Z,10.97
2023-04-30T23:00:33.990Z,10.82
2023-04-30T23:03:18.035Z,10.66
2023-04-30T23:06:01.259Z,10.46
2023-04-30T23:08:46.974Z,10.43
2023-04-30T23:11:31.718Z,10.39
2023-04-30T23:14:14.947Z,10.30
2023-04-30T23:16:58.168Z,10.22
2023-04-30T23:19:41.916Z,10.12
2023-04-30T23:22:25.295Z,9.99
2023-04-30T23:25:09.336Z,9.99
2023-04-30T23:27:54.223Z,10.04
2023-04-30T23:30:40.214Z,9.93
2023-04-30T23:33:23.528Z,9.92
2023-04-30T23:36:07.659Z,9.87
2023-04-30T23:38:51.504Z,9.88
2023-04-30T23:41:34.901Z,9.81
2023-04-30T23:44:19.529Z,9.79
2023-04-30T23:47:02.929Z,9.74
2023-04-30T23:49:46.326Z,9.67
2023-04-30T23:52:30.363Z,9.74
2023-04-30T23:55:14.312Z,9.69
2023-04-30T23:57:57.887Z,9.63
